Time;durP1;ratioP1;P1;durP2;ratioP2;P2;SDS_P1;SDS_P2;PMS_P1;PMS_P2;Temp;Humidity;BMP_temperature;BMP_pressure;BME280_temperature;BME280_humidity;BME280_pressure;Samples;Min_cycle;Max_cycle;Signal;HPM_P1;HPM_P2
2023/05/30 00:01:44;;;;;;;13.48;7.78;;;;;;;21.30;43.76;102886.50;5004936;28;20445;-33
2023/05/30 00:04:11;;;;;;;14.98;8.13;;;;;;;21.29;43.58;102876.72;5006790;28;20387;-33
2023/05/30 00:06:37;;;;;;;12.90;7.95;;;;;;;21.29;43.52;102886.63;5003892;28;20061;-33
2023/05/30 00:09:04;;;;;;;15.63;7.97;;;;;;;21.28;43.46;102876.84;5002790;28;20049;-33
2023/05/30 00:11:31;;;;;;;14.45;7.68;;;;;;;21.27;43.39;102876.00;5006016;28;20441;-33
2023/05/30 00:13:58;;;;;;;12.52;7.68;;;;;;;21.26;43.59;102878.78;5006913;28;20107;-33
2023/05/30 00:16:25;;;;;;;13.73;7.72;;;;;;;21.26;43.88;102879.66;5000670;28;20389;-33
2023/05/30 00:18:53;;;;;;;15.85;7.80;;;;;;;21.25;43.57;102877.09;5004096;28;20062;-33
2023/05/30 00:21:20;;;;;;;13.43;7.97;;;;;;;21.24;43.76;102878.06;5004477;28;20342;-33
2023/05/30 00:23:47;;;;;;;13.80;7.97;;;;;;;21.22;43.87;102875.47;5005363;28;20046;-33
2023/05/30 00:26:15;;;;;;;13.80;7.18;;;;;;;21.20;43.25;102872.94;5003738;28;20441;-33
2023/05/30 00:28:42;;;;;;;13.90;7.45;;;;;;;21.19;43.38;102868.53;5000419;28;20058;-33
2023/05/30 00:31:09;;;;;;;14.32;7.50;;;;;;;21.19;43.32;102878.47;5001598;28;20715;-33
2023/05/30 00:33:35;;;;;;;13.25;7.40;;;;;;;21.17;43.66;102870.47;5002499;28;20496;-33
2023/05/30 00:36:02;;;;;;;12.73;7.15;;;;;;;21.16;43.81;102876.84;5004689;28;20046;-33
2023/05/30 00:38:29;;;;;;;12.32;7.13;;;;;;;21.17;43.73;102885.78;5001042;28;20046;-33
2023/05/30 00:40:55;;;;;;;11.68;6.80;;;;;;;21.16;43.74;102882.25;5004506;28;20084;-34
2023/05/30 00:43:23;;;;;;;11.98;6.70;;;;;;;21.16;43.92;102882.25;5003800;28;20053;-33
2023/05/30 00:45:52;;;;;;;14.05;7.85;;;;;;;21.15;43.84;102885.09;5000973;28;20093;-33
2023/05/30 00:48:20;;;;;;;10.90;6.07;;;;;;;21.14;44.14;102884.19;5008031;28;20417;-33
2023/05/30 00:50:47;;;;;;;13.20;7.65;;;;;;;21.15;43.77;102890.47;5006067;28;20629;-33
2023/05/30 00:53:15;;;;;;;13.57;7.15;;;;;;;21.14;43.97;102889.59;5006780;28;20053;-33
2023/05/30 00:55:42;;;;;;;11.38;6.38;;;;;;;21.13;43.89;102884.34;5006939;28;20437;-34
2023/05/30 00:58:09;;;;;;;11.35;6.57;;;;;;;21.11;43.44;102887.16;5001126;28;20507;-33
2023/05/30 01:00:39;;;;;;;12.30;6.60;;;;;;;21.11;43.52;102873.69;5002757;28;20042;-34
2023/05/30 01:03:08;;;;;;;10.70;5.50;;;;;;;21.10;43.98;102880.03;5002445;28;20057;-33
2023/05/30 01:05:35;;;;;;;12.15;6.00;;;;;;;21.10;43.70;102877.34;5003920;28;20046;-34
2023/05/30 01:08:02;;;;;;;10.30;5.95;;;;;;;21.10;43.66;102877.34;5004972;28;20059;-34
2023/05/30 01:10:31;;;;;;;12.45;6.55;;;;;;;21.09;44.22;102878.31;5003290;28;20442;-34
2023/05/30 01:13:15;;;;;;;10.88;5.90;;;;;;;21.08;43.87;102879.31;5004588;28;20152;-33
2023/05/30 01:15:57;;;;;;;12.52;5.88;;;;;;;21.08;44.06;102884.72;5000001;28;20068;-33
2023/05/30 01:19:01;;;;;;;13.20;6.72;;;;;;;21.06;44.16;102883.09;4996038;28;20066;-34
2023/05/30 01:21:31;;;;;;;10.80;6.05;;;;;;;21.08;44.11;102882.00;5001877;28;20681;-33
2023/05/30 01:24:23;;;;;;;10.70;6.18;;;;;;;21.05;44.16;102884.94;5000107;28;20049;-34
2023/05/30 01:27:08;;;;;;;11.32;6.35;;;;;;;21.05;43.85;102879.56;5004924;28;20050;-33
2023/05/30 01:29:37;;;;;;;9.38;5.40;;;;;;;21.05;44.16;102887.66;5004052;28;20125;-34
2023/05/30 01:32:05;;;;;;;11.27;6.05;;;;;;;21.04;44.36;102885.94;5002649;28;20073;-34
2023/05/30 01:34:32;;;;;;;10.57;5.95;;;;;;;21.04;44.20;102882.38;5003584;28;20050;-33
2023/05/30 01:36:58;;;;;;;11.90;6.55;;;;;;;21.03;44.19;102875.28;5003114;28;20109;-33
2023/05/30 01:39:25;;;;;;;9.55;5.93;;;;;;;21.02;44.33;102878.94;5003236;28;20046;-34
2023/05/30 01:42:08;;;;;;;11.52;5.45;;;;;;;21.02;44.34;102881.63;4998947;28;20389;-34
2023/05/30 01:44:58;;;;;;;10.00;5.07;;;;;;;21.01;44.66;102882.63;5001783;28;20060;-33
2023/05/30 01:47:35;;;;;;;10.63;5.13;;;;;;;21.01;43.89;102882.63;4996255;28;20107;-33
2023/05/30 01:50:10;;;;;;;10.07;5.20;;;;;;;21.00;44.09;102881.78;5004119;28;20053;-35
2023/05/30 01:52:41;;;;;;;9.98;5.47;;;;;;;21.00;43.94;102887.16;5002139;28;20108;-34
2023/05/30 01:55:09;;;;;;;9.80;5.50;;;;;;;21.03;43.85;102883.38;5004579;28;20270;-39
2023/05/30 01:57:47;;;;;;;9.05;5.55;;;;;;;21.10;44.08;102885.44;5002897;28;20068;-33
2023/05/30 02:00:15;;;;;;;8.70;5.10;;;;;;;21.18;43.93;102887.50;5002133;28;20057;-33
2023/05/30 02:02:42;;;;;;;8.07;5.07;;;;;;;21.25;43.84;102888.72;5000711;28;20602;-33
2023/05/30 02:05:10;;;;;;;8.07;4.72;;;;;;;21.32;43.85;102894.50;4999237;28;20156;-34
2023/05/30 02:07:37;;;;;;;9.20;5.10;;;;;;;21.37;43.54;102898.53;5005776;28;20055;-33
2023/05/30 02:10:05;;;;;;;7.65;4.90;;;;;;;21.41;43.39;102897.31;5004059;28;20053;-34
2023/05/30 02:12:31;;;;;;;8.27;4.28;;;;;;;21.46;43.18;102898.78;4999677;28;20042;-34
2023/05/30 02:14:58;;;;;;;8.15;4.47;;;;;;;21.48;43.48;102897.66;5003643;28;20077;-33
2023/05/30 02:17:25;;;;;;;7.57;4.35;;;;;;;21.50;43.44;102901.09;5000457;28;20085;-34
2023/05/30 02:19:52;;;;;;;8.40;4.30;;;;;;;21.53;43.43;102898.13;5007053;28;20054;-35
2023/05/30 02:22:18;;;;;;;8.95;4.78;;;;;;;21.55;43.19;102906.97;5003129;28;20050;-34
2023/05/30 02:24:45;;;;;;;8.70;4.10;;;;;;;21.57;43.32;102902.31;5001554;28;20475;-33
2023/05/30 02:27:12;;;;;;;6.78;4.10;;;;;;;21.58;43.14;102906.69;5003563;28;20304;-33
2023/05/30 02:29:38;;;;;;;8.38;4.35;;;;;;;21.60;43.28;102903.91;5000811;28;20053;-34
2023/05/30 02:32:06;;;;;;;8.50;4.43;;;;;;;21.61;43.28;102913.69;5001745;28;20100;-35
2023/05/30 02:34:32;;;;;;;8.02;4.53;;;;;;;21.60;43.21;102910.16;5002527;28;20049;-34
2023/05/30 02:37:00;;;;;;;8.45;4.60;;;;;;;21.59;43.23;102910.28;5004312;28;20050;-34
2023/05/30 02:39:26;;;;;;;6.80;4.07;;;;;;;21.58;43.04;102909.41;4999460;28;20050;-36
2023/05/30 02:41:53;;;;;;;8.82;4.47;;;;;;;21.57;42.89;102913.09;5000692;28;20074;-33
2023/05/30 02:44:20;;;;;;;7.90;4.13;;;;;;;21.55;43.07;102906.97;5004990;28;20319;-34
2023/05/30 02:46:46;;;;;;;7.75;4.07;;;;;;;21.51;43.20;102916.31;5002568;28;20096;-33
2023/05/30 02:49:13;;;;;;;7.78;4.32;;;;;;;21.47;43.06;102914.84;5004193;28;20049;-33
2023/05/30 02:51:41;;;;;;;8.50;3.85;;;;;;;21.45;43.17;102911.41;4998743;28;20058;-34
2023/05/30 02:54:08;;;;;;;9.10;3.75;;;;;;;21.41;43.00;102908.09;4999082;28;20054;-34
2023/05/30 02:56:34;;;;;;;6.93;3.97;;;;;;;21.39;43.31;102914.63;5002208;28;20179;-33
2023/05/30 02:59:01;;;;;;;8.85;4.55;;;;;;;21.35;43.32;102915.84;4999025;28;20100;-33
2023/05/30 03:01:28;;;;;;;7.95;4.07;;;;;;;21.31;43.67;102914.38;4997066;28;20133;-33
2023/05/30 03:03:55;;;;;;;5.53;3.35;;;;;;;21.26;43.88;102903.06;5000916;28;20058;-33
2023/05/30 03:06:21;;;;;;;7.57;4.32;;;;;;;21.24;43.84;102913.13;5005839;28;20042;-33
2023/05/30 03:09:00;;;;;;;6.35;3.67;;;;;;;21.24;44.02;102922.09;4999688;28;20489;-34
2023/05/30 03:11:27;;;;;;;6.65;3.60;;;;;;;21.31;43.83;102919.75;5003100;28;20042;-34
2023/05/30 03:13:53;;;;;;;7.45;4.03;;;;;;;21.38;43.51;102918.28;5001709;28;20053;-33
2023/05/30 03:16:20;;;;;;;5.60;3.85;;;;;;;21.43;43.34;102925.03;4998380;28;20042;-33
2023/05/30 03:18:49;;;;;;;7.25;3.97;;;;;;;21.49;43.75;102915.56;4999286;28;20065;-33
2023/05/30 03:21:15;;;;;;;5.85;3.42;;;;;;;21.53;43.33;102914.34;5003462;28;20459;-33
2023/05/30 03:23:42;;;;;;;6.60;3.80;;;;;;;21.57;43.53;102923.88;5009178;28;20065;-34
2023/05/30 03:26:08;;;;;;;7.18;3.83;;;;;;;21.61;43.30;102919.09;5005676;28;20404;-33
2023/05/30 03:28:35;;;;;;;7.35;4.00;;;;;;;21.63;43.33;102917.16;5000058;28;20100;-33
2023/05/30 03:31:03;;;;;;;6.05;3.50;;;;;;;21.61;43.10;102916.41;5005284;28;20050;-35
2023/05/30 03:33:30;;;;;;;5.38;3.45;;;;;;;21.54;43.49;102918.75;5012959;28;20464;-33
2023/05/30 03:35:57;;;;;;;5.85;3.40;;;;;;;21.41;43.64;102921.59;5011486;28;20126;-33
2023/05/30 03:38:24;;;;;;;6.10;3.38;;;;;;;21.34;43.68;102931.16;5005750;28;20050;-33
2023/05/30 03:40:50;;;;;;;6.78;3.35;;;;;;;21.30;43.89;102928.81;5005728;28;20053;-33
2023/05/30 03:43:17;;;;;;;7.70;3.20;;;;;;;21.27;43.42;102932.63;5001651;28;20046;-33
2023/05/30 03:45:43;;;;;;;6.32;3.25;;;;;;;21.23;43.84;102930.28;5009722;28;20128;-33
2023/05/30 03:48:10;;;;;;;5.72;3.20;;;;;;;21.22;43.35;102931.25;5009197;28;20381;-33
2023/05/30 03:50:37;;;;;;;6.85;3.40;;;;;;;21.18;43.96;102933.34;5007398;28;20456;-33
2023/05/30 03:53:03;;;;;;;5.70;3.50;;;;;;;21.16;43.88;102936.19;4999427;28;20088;-34
2023/05/30 03:55:30;;;;;;;6.20;3.22;;;;;;;21.15;44.27;102939.00;5003297;28;20378;-33
2023/05/30 03:57:57;;;;;;;6.43;3.50;;;;;;;21.12;43.89;102940.09;5000029;28;20429;-33
2023/05/30 04:00:24;;;;;;;5.75;3.30;;;;;;;21.12;44.37;102944.66;5004231;28;20319;-34
2023/05/30 04:02:50;;;;;;;6.32;3.00;;;;;;;21.11;44.11;102937.53;5000425;28;20081;-33
2023/05/30 04:05:18;;;;;;;7.28;3.28;;;;;;;21.09;44.11;102932.25;5003986;28;20496;-33
2023/05/30 04:07:45;;;;;;;7.43;3.53;;;;;;;21.08;43.99;102932.38;5003328;28;20486;-33
2023/05/30 04:10:11;;;;;;;6.90;3.00;;;;;;;21.07;44.18;102933.38;5000298;28;20128;-33
2023/05/30 04:12:38;;;;;;;6.07;3.00;;;;;;;21.05;44.15;102929.94;5002002;28;20090;-34
2023/05/30 04:15:05;;;;;;;7.28;2.97;;;;;;;21.04;44.57;102929.06;5004096;28;20045;-34
2023/05/30 04:17:32;;;;;;;8.20;3.55;;;;;;;21.04;44.54;102929.06;5000241;28;20054;-33
2023/05/30 04:19:59;;;;;;;7.10;3.17;;;;;;;21.11;44.41;102935.72;5004777;28;20112;-33
2023/05/30 04:22:25;;;;;;;6.93;3.30;;;;;;;21.18;44.07;102933.34;5003511;28;20070;-33
2023/05/30 04:24:52;;;;;;;6.50;3.10;;;;;;;21.25;43.84;102934.56;5006670;28;20488;-33
2023/05/30 04:27:19;;;;;;;7.50;3.60;;;;;;;21.31;43.71;102935.94;5006676;28;20056;-33
2023/05/30 04:29:46;;;;;;;6.82;3.30;;;;;;;21.37;43.61;102935.47;5000625;28;20077;-33
2023/05/30 04:32:13;;;;;;;7.13;3.47;;;;;;;21.40;43.95;102937.91;5001532;28;20119;-33
2023/05/30 04:34:40;;;;;;;7.07;3.10;;;;;;;21.44;43.55;102939.38;5000813;28;20056;-34
2023/05/30 04:37:07;;;;;;;4.72;2.85;;;;;;;21.48;43.31;102945.38;4999884;28;20046;-33
2023/05/30 04:39:35;;;;;;;7.63;3.00;;;;;;;21.50;43.54;102943.41;5003495;28;20468;-33
2023/05/30 04:42:04;;;;;;;8.45;3.65;;;;;;;21.52;43.49;102942.31;5003328;28;20076;-33
2023/05/30 04:44:38;;;;;;;4.80;2.67;;;;;;;21.53;43.50;102948.56;5003703;28;20384;-33
2023/05/30 04:47:05;;;;;;;15.45;3.42;;;;;;;;;;5004540;28;20056;-33
2023/05/30 04:49:32;;;;;;;6.47;3.22;;;;;;;21.57;43.46;102950.03;5004995;28;20050;-34
2023/05/30 04:51:58;;;;;;;7.57;3.50;;;;;;;21.60;42.97;102955.19;5006681;28;20112;-36
2023/05/30 04:54:27;;;;;;;6.80;3.33;;;;;;;21.60;43.32;102950.63;5001539;28;20077;-34
2023/05/30 04:56:53;;;;;;;7.38;3.10;;;;;;;21.63;43.39;102954.94;5031699;28;20435;-33
2023/05/30 04:59:20;;;;;;;7.40;3.28;;;;;;;21.64;43.34;102946.69;5000433;28;20108;-33
2023/05/30 05:01:48;;;;;;;4.57;2.72;;;;;;;21.65;43.33;102947.53;5002537;28;20054;-33
2023/05/30 05:04:15;;;;;;;5.97;3.28;;;;;;;21.67;43.37;102953.69;5009618;28;20369;-33
2023/05/30 05:06:42;;;;;;;9.18;3.80;;;;;;;21.67;43.25;102949.16;5005956;28;20358;-33
2023/05/30 05:09:09;;;;;;;6.50;3.17;;;;;;;21.68;43.13;102956.25;5037492;28;20497;-34
2023/05/30 05:11:37;;;;;;;6.22;3.35;;;;;;;21.69;43.09;102957.09;5009732;28;20170;-34
2023/05/30 05:14:04;;;;;;;7.43;3.45;;;;;;;21.71;42.92;102956.97;5033164;28;20421;-34
2023/05/30 05:16:30;;;;;;;5.45;3.25;;;;;;;21.71;43.30;102965.06;5001625;28;20050;-34
2023/05/30 05:18:57;;;;;;;8.13;3.03;;;;;;;21.72;43.02;102954.16;5007010;28;20059;-35
2023/05/30 05:21:24;;;;;;;7.47;3.63;;;;;;;21.73;43.19;102965.81;5007378;28;20046;-34
2023/05/30 05:23:50;;;;;;;4.30;2.92;;;;;;;21.73;42.92;102955.00;5003299;28;20107;-34
2023/05/30 05:26:17;;;;;;;6.38;3.42;;;;;;;21.73;42.49;102955.88;5005106;28;20076;-34
2023/05/30 05:28:45;;;;;;;5.05;3.08;;;;;;;21.72;42.94;102956.00;4998152;28;20104;-34
2023/05/30 05:31:11;;;;;;;7.07;2.95;;;;;;;21.71;43.26;102947.06;5006019;28;20068;-34
2023/05/30 05:33:38;;;;;;;5.78;3.15;;;;;;;21.71;43.20;102956.97;5004521;28;20050;-35
2023/05/30 05:36:05;;;;;;;6.95;3.75;;;;;;;21.69;43.09;102955.25;5001375;28;20046;-34
2023/05/30 05:38:31;;;;;;;5.10;3.20;;;;;;;21.67;42.87;102953.69;4998661;28;20062;-34
2023/05/30 05:40:58;;;;;;;6.18;3.10;;;;;;;21.65;43.25;102950.25;5001306;28;20100;-34
2023/05/30 05:43:25;;;;;;;6.22;3.55;;;;;;;21.62;43.45;102955.88;4998153;28;20349;-34
2023/05/30 05:45:52;;;;;;;7.35;3.40;;;;;;;21.60;43.36;102956.03;4999209;28;20453;-34
2023/05/30 05:48:19;;;;;;;6.50;3.45;;;;;;;21.57;43.04;102953.56;4999338;28;20077;-34
2023/05/30 05:50:45;;;;;;;6.38;3.65;;;;;;;21.56;43.10;102951.00;4999177;28;20053;-34
2023/05/30 05:53:12;;;;;;;4.72;2.90;;;;;;;21.52;43.48;102950.41;4997430;28;20162;-34
2023/05/30 05:55:38;;;;;;;6.40;3.40;;;;;;;21.51;43.17;102966.69;5005156;28;20050;-34
2023/05/30 05:58:05;;;;;;;7.72;4.07;;;;;;;21.46;43.72;102960.81;4998034;28;20105;-34
2023/05/30 06:00:34;;;;;;;6.35;3.40;;;;;;;21.44;43.71;102959.13;4999448;28;20042;-34
2023/05/30 06:03:01;;;;;;;5.88;3.13;;;;;;;21.42;43.26;102963.75;5000052;28;20115;-34
2023/05/30 06:05:31;;;;;;;6.18;3.75;;;;;;;21.39;43.65;102953.25;5003085;28;20053;-35
2023/05/30 06:07:58;;;;;;;7.35;3.42;;;;;;;21.37;43.47;102951.66;5000791;28;20434;-34
2023/05/30 06:10:25;;;;;;;5.55;3.13;;;;;;;21.35;43.70;102953.63;5001073;28;20105;-34
2023/05/30 06:12:52;;;;;;;6.55;3.75;;;;;;;21.33;43.60;102958.28;4997777;28;20050;-34
2023/05/30 06:15:18;;;;;;;7.10;3.38;;;;;;;21.31;44.07;102955.69;5001877;28;20108;-34
2023/05/30 06:17:45;;;;;;;6.22;3.25;;;;;;;21.31;44.12;102957.53;5005256;28;20499;-34
2023/05/30 06:20:12;;;;;;;7.20;4.05;;;;;;;21.31;44.27;102950.28;5004881;28;20152;-34
2023/05/30 06:22:39;;;;;;;5.32;3.40;;;;;;;21.31;44.06;102946.72;4997035;28;20056;-34
2023/05/30 06:25:06;;;;;;;6.88;3.35;;;;;;;21.31;44.02;102946.72;4999503;28;20135;-34
2023/05/30 06:27:32;;;;;;;7.00;3.15;;;;;;;21.33;43.62;102955.56;5002272;28;20049;-34
2023/05/30 06:29:59;;;;;;;6.07;3.00;;;;;;;21.32;43.58;102961.94;4999085;28;20132;-34
2023/05/30 06:32:26;;;;;;;6.53;3.15;;;;;;;21.33;43.81;102958.28;5008389;28;20464;-34
2023/05/30 06:34:53;;;;;;;8.40;3.92;;;;;;;21.33;43.69;102956.44;5004742;28;20046;-34
2023/05/30 06:37:19;;;;;;;8.27;3.95;;;;;;;21.35;43.70;102961.72;5001739;28;20054;-34
2023/05/30 06:39:46;;;;;;;5.80;3.30;;;;;;;21.35;43.85;102962.56;5001387;28;20049;-34
2023/05/30 06:42:13;;;;;;;7.45;3.88;;;;;;;21.37;43.45;102965.97;5001455;28;20073;-34
2023/05/30 06:44:39;;;;;;;5.68;3.20;;;;;;;21.39;43.90;102968.59;5004248;28;20338;-34
2023/05/30 06:47:06;;;;;;;6.75;3.80;;;;;;;21.38;43.99;102965.00;5004885;28;20053;-34
2023/05/30 06:49:32;;;;;;;7.22;3.80;;;;;;;21.40;43.83;102965.75;4998872;28;20089;-35
2023/05/30 06:51:59;;;;;;;9.07;3.75;;;;;;;21.40;43.61;102971.13;4999161;28;20404;-34
2023/05/30 06:54:26;;;;;;;6.30;3.50;;;;;;;21.41;43.40;102964.75;5027883;28;20846;-34
2023/05/30 06:56:53;;;;;;;5.55;3.22;;;;;;;21.42;43.73;102979.94;5000960;28;20386;-34
2023/05/30 06:59:19;;;;;;;6.60;3.75;;;;;;;21.43;43.58;102975.44;5002929;28;20050;-33
2023/05/30 07:01:46;;;;;;;7.38;3.60;;;;;;;21.44;43.59;102977.16;5004967;28;20078;-33
2023/05/30 07:04:13;;;;;;;5.28;3.28;;;;;;;21.43;43.56;102981.69;5000904;28;20111;-33
2023/05/30 07:06:40;;;;;;;6.72;3.75;;;;;;;21.46;43.75;102975.16;5001904;28;20042;-34
2023/05/30 07:09:07;;;;;;;6.70;3.75;;;;;;;21.48;43.80;102977.75;4999437;28;20050;-33
2023/05/30 07:11:33;;;;;;;6.60;3.17;;;;;;;21.49;43.58;102971.38;4998792;28;20154;-33
2023/05/30 07:14:00;;;;;;;6.90;3.28;;;;;;;21.50;43.73;102979.34;5001104;28;20357;-34
2023/05/30 07:16:27;;;;;;;5.25;3.33;;;;;;;21.51;43.48;102982.88;4999754;28;20038;-33
2023/05/30 07:18:54;;;;;;;7.60;3.50;;;;;;;21.51;43.62;102972.97;5001782;28;20085;-33
2023/05/30 07:21:38;;;;;;;7.03;4.03;;;;;;;21.54;43.55;102978.09;4996471;28;20661;-33
2023/05/30 07:24:04;;;;;;;5.18;2.83;;;;;;;21.55;43.20;102979.84;5000707;28;20054;-34
2023/05/30 07:26:31;;;;;;;6.75;3.58;;;;;;;21.57;43.25;102979.72;5000221;28;20061;-34
2023/05/30 07:28:58;;;;;;;5.38;3.20;;;;;;;21.57;43.49;102980.56;4996688;28;20120;-34
2023/05/30 07:31:25;;;;;;;7.63;3.92;;;;;;;21.60;43.64;102985.72;4999174;28;20046;-34
2023/05/30 07:33:51;;;;;;;7.32;3.83;;;;;;;21.62;43.51;102978.34;5007950;28;20445;-33
2023/05/30 07:36:18;;;;;;;7.15;3.83;;;;;;;21.65;43.63;102986.19;5002849;28;20361;-33
2023/05/30 07:38:45;;;;;;;10.13;3.88;;;;;;;21.67;43.41;102977.97;5000545;28;20051;-33
2023/05/30 07:41:11;;;;;;;7.20;3.75;;;;;;;21.69;43.21;102970.59;5000871;28;20104;-34
2023/05/30 07:43:38;;;;;;;7.88;3.78;;;;;;;21.71;43.19;102975.84;4997809;28;20046;-34
2023/05/30 07:46:05;;;;;;;8.95;3.90;;;;;;;21.71;43.38;102970.47;4996370;28;20443;-34
2023/05/30 07:48:31;;;;;;;9.23;4.40;;;;;;;21.73;43.45;102966.66;5028191;28;20085;-34
2023/05/30 07:50:58;;;;;;;9.38;4.63;;;;;;;21.75;43.26;102977.31;4999144;28;20066;-34
2023/05/30 07:53:25;;;;;;;9.00;4.10;;;;;;;21.76;43.38;102968.25;5001378;28;20088;-34
2023/05/30 07:55:52;;;;;;;6.45;3.75;;;;;;;21.78;43.21;102977.06;4997443;28;20132;-34
2023/05/30 07:58:18;;;;;;;8.48;3.78;;;;;;;21.78;43.35;102972.53;4999168;28;20046;-34
2023/05/30 08:00:45;;;;;;;8.55;4.07;;;;;;;21.80;43.24;102985.94;5002917;28;20080;-34
2023/05/30 08:03:12;;;;;;;10.30;3.63;;;;;;;21.81;43.02;102979.53;5006046;28;20149;-33
2023/05/30 08:05:38;;;;;;;8.55;4.32;;;;;;;21.81;43.28;102982.22;4997856;28;20046;-34
2023/05/30 08:08:07;;;;;;;8.40;3.50;;;;;;;21.84;43.25;102976.59;5002831;28;20662;-34
2023/05/30 08:10:33;;;;;;;12.65;4.50;;;;;;;21.85;43.47;102973.75;5006851;28;20100;-34
2023/05/30 08:13:00;;;;;;;10.27;4.07;;;;;;;21.86;43.26;102971.91;5003795;28;20389;-35
2023/05/30 08:15:27;;;;;;;6.88;4.25;;;;;;;21.88;43.33;102968.09;5003123;28;20050;-34
2023/05/30 08:17:56;;;;;;;8.27;4.10;;;;;;;21.90;43.13;102981.47;5001713;28;20053;-34
2023/05/30 08:20:24;;;;;;;9.00;3.88;;;;;;;21.91;43.08;102970.56;4998989;28;20112;-34
2023/05/30 08:22:51;;;;;;;9.00;4.00;;;;;;;21.92;43.07;102971.41;5002888;28;20061;-34
2023/05/30 08:25:28;;;;;;;9.13;3.90;;;;;;;21.93;42.96;102970.41;5001787;28;20052;-40
2023/05/30 08:27:58;;;;;;;8.38;3.95;;;;;;;21.94;42.85;102966.72;5007548;28;20465;-34
2023/05/30 08:30:25;;;;;;;8.25;4.15;;;;;;;21.94;43.04;102970.28;5004612;28;20077;-34
2023/05/30 08:32:51;;;;;;;8.57;3.80;;;;;;;21.94;42.66;102964.88;5002262;28;20148;-36
2023/05/30 08:35:18;;;;;;;9.77;4.00;;;;;;;21.96;42.83;102958.50;5030549;28;20293;-34
2023/05/30 08:37:45;;;;;;;8.13;4.28;;;;;;;21.96;42.68;102955.81;5003504;28;20136;-34
2023/05/30 08:40:15;;;;;;;9.35;3.88;;;;;;;21.96;42.93;102956.66;5002901;28;20052;-34
2023/05/30 08:42:42;;;;;;;8.73;4.18;;;;;;;21.96;42.80;102955.81;5002918;28;20772;-34
2023/05/30 08:45:09;;;;;;;9.32;3.70;;;;;;;21.96;42.92;102953.13;5008516;28;20077;-34
2023/05/30 08:47:36;;;;;;;7.97;3.72;;;;;;;21.96;42.51;102955.81;5001880;28;20042;-34
2023/05/30 08:50:04;;;;;;;9.45;3.58;;;;;;;21.96;42.45;102959.38;5004323;28;20054;-36
2023/05/30 08:52:31;;;;;;;7.00;3.53;;;;;;;21.96;42.78;102958.50;5009202;28;20117;-33
2023/05/30 08:55:10;;;;;;;8.07;3.35;;;;;;;21.95;43.00;102946.84;5003455;28;20339;-34
2023/05/30 08:57:51;;;;;;;6.70;3.83;;;;;;;21.97;42.95;102944.03;5002722;28;20080;-34
2023/05/30 09:00:18;;;;;;;8.85;3.63;;;;;;;21.98;43.17;102957.38;5000289;28;20046;-34
2023/05/30 09:02:45;;;;;;;6.18;3.50;;;;;;;21.98;43.08;102960.06;5003668;28;20145;-34
2023/05/30 09:05:15;;;;;;;9.27;3.60;;;;;;;22.01;43.12;102951.72;4998990;28;20054;-34
2023/05/30 09:07:44;;;;;;;7.35;3.72;;;;;;;22.01;43.09;102940.94;5005233;28;20082;-35
2023/05/30 09:10:11;;;;;;;6.40;3.33;;;;;;;22.02;43.09;102945.34;5002272;28;20054;-34
2023/05/30 09:12:41;;;;;;;9.40;4.43;;;;;;;22.04;43.05;102935.28;5003761;28;20116;-34
2023/05/30 09:15:08;;;;;;;5.95;3.58;;;;;;;22.06;43.09;102944.09;5006260;28;20050;-34
2023/05/30 09:17:34;;;;;;;6.88;3.63;;;;;;;22.08;42.99;102941.28;5004576;28;20108;-34
2023/05/30 09:20:02;;;;;;;7.60;3.22;;;;;;;22.11;43.16;102938.28;4999402;28;20407;-34
2023/05/30 09:22:29;;;;;;;5.93;2.90;;;;;;;22.12;43.02;102940.88;5002424;28;20531;-34
2023/05/30 09:25:01;;;;;;;6.45;3.08;;;;;;;22.15;42.81;102939.78;4999363;28;20432;-35
2023/05/30 09:27:29;;;;;;;5.68;3.13;;;;;;;22.20;42.91;102937.56;5001611;28;20884;-35
2023/05/30 09:29:56;;;;;;;6.45;2.90;;;;;;;22.24;42.70;102938.16;4999471;28;20050;-34
2023/05/30 09:32:34;;;;;;;4.93;2.95;;;;;;;22.28;42.86;102943.19;5004783;28;20056;-34
2023/05/30 09:35:05;;;;;;;4.88;2.72;;;;;;;22.32;42.37;102933.81;5004528;28;20137;-34
2023/05/30 09:37:36;;;;;;;7.85;3.35;;;;;;;22.37;42.30;102928.03;5007219;28;20057;-34
2023/05/30 09:40:09;;;;;;;5.13;2.70;;;;;;;22.40;42.63;102934.03;5006130;28;20165;-34
2023/05/30 09:42:47;;;;;;;7.23;2.83;;;;;;;22.45;42.42;102933.63;5007743;28;20070;-34
2023/05/30 09:45:22;;;;;;;5.85;2.60;;;;;;;22.50;42.68;102934.06;5005828;28;20571;-33
2023/05/30 09:47:51;;;;;;;7.72;2.65;;;;;;;22.55;41.84;102928.25;5004586;28;20042;-32
2023/05/30 09:50:22;;;;;;;10.98;2.90;;;;;;;22.54;41.44;102934.66;4982656;28;20095;-35
2023/05/30 09:52:51;;;;;;;9.77;2.58;;;;;;;22.51;41.50;102930.38;4996217;28;20049;-36
2023/05/30 09:55:19;;;;;;;7.13;2.50;;;;;;;22.51;41.27;102916.00;5000925;28;20300;-35
2023/05/30 09:57:50;;;;;;;6.88;2.90;;;;;;;22.50;41.69;102925.09;4994319;28;20430;-33
2023/05/30 10:00:23;;;;;;;8.10;2.50;;;;;;;22.49;41.19;102929.66;5000062;28;20058;-34
2023/05/30 10:02:55;;;;;;;5.70;2.38;;;;;;;22.51;41.47;102934.94;4999389;28;20907;-34
2023/05/30 10:05:27;;;;;;;5.53;2.47;;;;;;;22.50;41.27;102931.38;5001421;28;20054;-34
2023/05/30 10:07:55;;;;;;;7.45;2.45;;;;;;;22.53;41.12;102925.69;5002889;28;20814;-34
2023/05/30 10:10:23;;;;;;;7.78;2.20;;;;;;;22.55;41.60;102939.06;4999945;28;20050;-34
2023/05/30 10:12:55;;;;;;;7.50;2.20;;;;;;;22.56;41.40;102938.09;4995673;28;20547;-34
2023/05/30 10:15:23;;;;;;;5.80;2.25;;;;;;;22.56;41.18;102930.84;5001616;28;20430;-34
2023/05/30 10:17:58;;;;;;;9.85;2.92;;;;;;;22.56;40.99;102930.84;4999812;28;20312;-37
2023/05/30 10:20:26;;;;;;;7.43;3.05;;;;;;;22.59;41.49;102927.00;4997991;28;20159;-38
2023/05/30 10:22:54;;;;;;;5.50;2.47;;;;;;;22.60;41.21;102920.63;5004860;28;20108;-34
2023/05/30 10:25:21;;;;;;;9.38;2.50;;;;;;;22.61;41.47;102923.19;5005951;28;20050;-33
2023/05/30 10:27:56;;;;;;;6.82;2.45;;;;;;;22.62;41.26;102930.31;4998773;28;20046;-33
2023/05/30 10:30:32;;;;;;;8.48;2.33;;;;;;;22.64;41.32;102935.59;4999056;28;20056;-33
2023/05/30 10:33:04;;;;;;;6.55;1.90;;;;;;;22.66;41.21;102926.34;4994175;28;20050;-34
2023/05/30 10:35:32;;;;;;;8.93;1.85;;;;;;;22.67;40.92;102928.06;5001340;28;20128;-33
2023/05/30 10:38:04;;;;;;;4.90;2.08;;;;;;;22.69;41.25;102929.78;5002713;28;20581;-33
2023/05/30 10:41:12;;;;;;;6.60;2.45;;;;;;;22.68;41.21;102920.81;4998789;28;20049;-33
2023/05/30 10:44:03;;;;;;;4.78;2.05;;;;;;;22.71;41.22;102911.56;4999561;28;20437;-33
2023/05/30 10:46:36;;;;;;;4.05;1.90;;;;;;;22.73;41.15;102923.13;5005917;28;20053;-33
2023/05/30 10:49:12;;;;;;;5.20;1.85;;;;;;;22.73;41.31;102917.72;5003572;28;20085;-35
2023/05/30 10:52:01;;;;;;;6.05;1.80;;;;;;;22.74;41.38;102922.13;5006614;28;20461;-34
2023/05/30 10:54:31;;;;;;;7.18;2.38;;;;;;;22.77;41.16;102919.16;5031842;28;20107;-34
2023/05/30 10:56:59;;;;;;;4.10;1.83;;;;;;;22.77;41.01;102911.91;5003670;28;20046;-34
2023/05/30 10:59:25;;;;;;;4.82;1.90;;;;;;;22.78;41.51;102908.19;5001878;28;20100;-34
2023/05/30 11:02:00;;;;;;;4.50;1.95;;;;;;;22.76;41.16;102910.19;5000957;28;20046;-34
2023/05/30 11:04:35;;;;;;;3.13;1.42;;;;;;;22.76;40.94;102909.34;5004252;28;20077;-34
2023/05/30 11:07:11;;;;;;;3.00;1.48;;;;;;;22.76;41.61;102914.75;4999111;28;20337;-35
2023/05/30 11:09:42;;;;;;;4.28;1.60;;;;;;;22.74;41.17;102912.16;5000061;28;20418;-34
2023/05/30 11:12:21;;;;;;;7.20;2.03;;;;;;;22.73;41.23;102920.41;5032007;28;20050;-33
2023/05/30 11:14:55;;;;;;;5.28;1.40;;;;;;;22.70;41.26;102918.81;5003784;28;20068;-34
2023/05/30 11:17:33;;;;;;;5.88;2.13;;;;;;;22.70;41.46;102920.69;4997581;28;20042;-34
2023/05/30 11:20:14;;;;;;;5.97;2.20;;;;;;;22.66;41.85;102923.63;4998586;28;20386;-34
2023/05/30 11:23:00;;;;;;;4.28;1.55;;;;;;;22.65;41.54;102921.06;5000294;28;20441;-33
2023/05/30 11:25:29;;;;;;;5.07;2.00;;;;;;;22.64;41.50;102914.81;5000674;28;20350;-34
2023/05/30 11:28:16;;;;;;;2.92;1.55;;;;;;;22.63;41.57;102914.94;4998823;28;20404;-33
2023/05/30 11:30:47;;;;;;;3.15;1.67;;;;;;;22.64;41.87;102909.41;4999890;28;20058;-33
2023/05/30 11:33:16;;;;;;;3.40;2.03;;;;;;;22.63;41.63;102913.13;4999277;28;20061;-34